Terminal Aerodrome Forecast
Issued by NWS Pueblo, CO

Home | Current Version | Previous Version | Text Only | Print | Product List | Glossary On
Versions: 1 2 3 4 5 6 7 8 9 10 11 12 13 14 15 16 17 18 19 20
000
FTUS45 KPUB 250125 AAA
TAFCOS
TAF AMD
KCOS 250125Z 2501/2524 21015KT P6SM SCT100 SCT200
     FM250400 30011KT P6SM SCT120
     FM250700 02007KT P6SM FEW120
     FM251700 17013G23KT P6SM SCT120 SCT200=

USA.gov is the U.S. government's official web portal to all federal, state and local government web resources and services.